sensor_id;sensor_type;location;lat;lon;timestamp;P1;durP1;ratioP1;P2;durP2;ratioP2
3549;SDS011;45572;48.804;8.330;2023-05-10T00:02:22;1.35;;;0.80;;
3549;SDS011;45572;48.804;8.330;2023-05-10T00:04:50;1.27;;;1.10;;
3549;SDS011;45572;48.804;8.330;2023-05-10T00:07:18;1.15;;;0.73;;
3549;SDS011;45572;48.804;8.330;2023-05-10T00:09:46;1.13;;;1.02;;
3549;SDS011;45572;48.804;8.330;2023-05-10T00:12:13;1.35;;;0.95;;
3549;SDS011;45572;48.804;8.330;2023-05-10T00:14:41;1.20;;;1.00;;
3549;SDS011;45572;48.804;8.330;2023-05-10T00:17:09;4.38;;;1.10;;
3549;SDS011;45572;48.804;8.330;2023-05-10T00:19:38;1.48;;;1.10;;
3549;SDS011;45572;48.804;8.330;2023-05-10T00:22:06;2.17;;;1.00;;
3549;SDS011;45572;48.804;8.330;2023-05-10T00:24:33;1.30;;;0.98;;
3549;SDS011;45572;48.804;8.330;2023-05-10T00:27:01;3.00;;;1.00;;
3549;SDS011;45572;48.804;8.330;2023-05-10T00:29:30;1.25;;;0.90;;
3549;SDS011;45572;48.804;8.330;2023-05-10T00:31:57;1.75;;;1.05;;
3549;SDS011;45572;48.804;8.330;2023-05-10T00:34:25;1.77;;;1.30;;
3549;SDS011;45572;48.804;8.330;2023-05-10T00:36:54;1.40;;;1.15;;
3549;SDS011;45572;48.804;8.330;2023-05-10T00:39:22;2.10;;;1.30;;
3549;SDS011;45572;48.804;8.330;2023-05-10T00:41:50;1.35;;;1.15;;
3549;SDS011;45572;48.804;8.330;2023-05-10T00:44:18;1.90;;;1.17;;
3549;SDS011;45572;48.804;8.330;2023-05-10T00:46:46;1.70;;;1.17;;
3549;SDS011;45572;48.804;8.330;2023-05-10T00:49:14;3.15;;;1.10;;
3549;SDS011;45572;48.804;8.330;2023-05-10T00:51:43;2.75;;;1.15;;
3549;SDS011;45572;48.804;8.330;2023-05-10T00:54:12;4.45;;;1.52;;
3549;SDS011;45572;48.804;8.330;2023-05-10T00:56:41;1.25;;;1.00;;
3549;SDS011;45572;48.804;8.330;2023-05-10T00:59:14;2.63;;;1.63;;
3549;SDS011;45572;48.804;8.330;2023-05-10T01:01:43;2.17;;;1.40;;
3549;SDS011;45572;48.804;8.330;2023-05-10T01:04:12;3.15;;;1.60;;
3549;SDS011;45572;48.804;8.330;2023-05-10T01:06:41;2.55;;;1.30;;
3549;SDS011;45572;48.804;8.330;2023-05-10T01:09:09;5.22;;;1.65;;
3549;SDS011;45572;48.804;8.330;2023-05-10T01:11:40;2.08;;;1.70;;
3549;SDS011;45572;48.804;8.330;2023-05-10T01:14:07;2.22;;;1.55;;
3549;SDS011;45572;48.804;8.330;2023-05-10T01:16:37;2.40;;;2.20;;
3549;SDS011;45572;48.804;8.330;2023-05-10T01:19:11;2.95;;;2.42;;
3549;SDS011;45572;48.804;8.330;2023-05-10T01:27:40;2.88;;;2.05;;
3549;SDS011;45572;48.804;8.330;2023-05-10T01:30:30;4.30;;;2.00;;
3549;SDS011;45572;48.804;8.330;2023-05-10T01:33:13;2.42;;;1.70;;
3549;SDS011;45572;48.804;8.330;2023-05-10T01:35:47;3.38;;;1.60;;
3549;SDS011;45572;48.804;8.330;2023-05-10T01:38:22;2.90;;;1.85;;
3549;SDS011;45572;48.804;8.330;2023-05-10T01:41:00;2.28;;;1.88;;
3549;SDS011;45572;48.804;8.330;2023-05-10T01:43:42;7.57;;;1.73;;
3549;SDS011;45572;48.804;8.330;2023-05-10T01:46:22;2.08;;;1.67;;
3549;SDS011;45572;48.804;8.330;2023-05-10T01:48:57;2.33;;;1.67;;
3549;SDS011;45572;48.804;8.330;2023-05-10T01:51:29;1.73;;;1.35;;
3549;SDS011;45572;48.804;8.330;2023-05-10T01:54:03;2.38;;;1.52;;
3549;SDS011;45572;48.804;8.330;2023-05-10T01:56:33;2.28;;;1.45;;
3549;SDS011;45572;48.804;8.330;2023-05-10T01:59:04;2.20;;;2.00;;
3549;SDS011;45572;48.804;8.330;2023-05-10T02:01:35;3.00;;;1.65;;
3549;SDS011;45572;48.804;8.330;2023-05-10T02:04:06;3.53;;;1.80;;
3549;SDS011;45572;48.804;8.330;2023-05-10T02:06:37;7.53;;;1.98;;
3549;SDS011;45572;48.804;8.330;2023-05-10T02:09:06;2.08;;;1.80;;
3549;SDS011;45572;48.804;8.330;2023-05-10T02:11:35;2.58;;;2.00;;
3549;SDS011;45572;48.804;8.330;2023-05-10T02:14:05;3.35;;;1.80;;
3549;SDS011;45572;48.804;8.330;2023-05-10T02:16:36;2.65;;;1.73;;
3549;SDS011;45572;48.804;8.330;2023-05-10T02:19:08;1.48;;;1.20;;
3549;SDS011;45572;48.804;8.330;2023-05-10T02:21:37;2.47;;;1.30;;
3549;SDS011;45572;48.804;8.330;2023-05-10T02:24:07;1.77;;;1.40;;
3549;SDS011;45572;48.804;8.330;2023-05-10T02:26:37;2.80;;;1.23;;
3549;SDS011;45572;48.804;8.330;2023-05-10T02:29:06;1.90;;;1.30;;
3549;SDS011;45572;48.804;8.330;2023-05-10T02:31:35;2.10;;;1.25;;
3549;SDS011;45572;48.804;8.330;2023-05-10T02:34:05;1.50;;;1.40;;
3549;SDS011;45572;48.804;8.330;2023-05-10T02:36:36;5.10;;;1.20;;
3549;SDS011;45572;48.804;8.330;2023-05-10T02:39:05;1.15;;;1.00;;
3549;SDS011;45572;48.804;8.330;2023-05-10T02:41:36;1.40;;;1.00;;
3549;SDS011;45572;48.804;8.330;2023-05-10T02:44:05;2.65;;;1.40;;
3549;SDS011;45572;48.804;8.330;2023-05-10T02:46:34;1.88;;;1.17;;
3549;SDS011;45572;48.804;8.330;2023-05-10T02:49:03;2.00;;;1.20;;
3549;SDS011;45572;48.804;8.330;2023-05-10T02:51:34;3.13;;;1.60;;
3549;SDS011;45572;48.804;8.330;2023-05-10T02:54:13;1.60;;;1.33;;
3549;SDS011;45572;48.804;8.330;2023-05-10T02:56:46;2.95;;;1.08;;
3549;SDS011;45572;48.804;8.330;2023-05-10T02:59:17;1.83;;;1.20;;
3549;SDS011;45572;48.804;8.330;2023-05-10T03:01:45;2.17;;;1.35;;
3549;SDS011;45572;48.804;8.330;2023-05-10T03:04:13;2.15;;;1.45;;
3549;SDS011;45572;48.804;8.330;2023-05-10T03:06:43;1.20;;;0.98;;
3549;SDS011;45572;48.804;8.330;2023-05-10T03:09:11;4.20;;;1.55;;
3549;SDS011;45572;48.804;8.330;2023-05-10T03:11:44;1.85;;;1.40;;
3549;SDS011;45572;48.804;8.330;2023-05-10T03:14:25;1.35;;;1.20;;
3549;SDS011;45572;48.804;8.330;2023-05-10T03:17:04;1.30;;;1.20;;
3549;SDS011;45572;48.804;8.330;2023-05-10T03:19:39;1.50;;;1.27;;
3549;SDS011;45572;48.804;8.330;2023-05-10T03:22:16;1.50;;;1.08;;
3549;SDS011;45572;48.804;8.330;2023-05-10T03:24:50;2.38;;;1.50;;
3549;SDS011;45572;48.804;8.330;2023-05-10T03:27:22;2.25;;;1.50;;
3549;SDS011;45572;48.804;8.330;2023-05-10T03:29:53;2.67;;;1.15;;
3549;SDS011;45572;48.804;8.330;2023-05-10T03:32:22;1.55;;;1.17;;
3549;SDS011;45572;48.804;8.330;2023-05-10T03:34:50;1.90;;;1.30;;
3549;SDS011;45572;48.804;8.330;2023-05-10T03:37:19;2.00;;;1.40;;
3549;SDS011;45572;48.804;8.330;2023-05-10T03:39:47;1.75;;;1.10;;
3549;SDS011;45572;48.804;8.330;2023-05-10T03:42:15;2.95;;;1.45;;
3549;SDS011;45572;48.804;8.330;2023-05-10T03:44:44;1.85;;;1.20;;
3549;SDS011;45572;48.804;8.330;2023-05-10T03:47:14;1.98;;;1.65;;
3549;SDS011;45572;48.804;8.330;2023-05-10T03:49:41;1.85;;;1.42;;
3549;SDS011;45572;48.804;8.330;2023-05-10T03:52:11;1.83;;;1.55;;
3549;SDS011;45572;48.804;8.330;2023-05-10T03:54:40;2.50;;;1.63;;
3549;SDS011;45572;48.804;8.330;2023-05-10T03:57:08;3.33;;;1.20;;
3549;SDS011;45572;48.804;8.330;2023-05-10T03:59:36;6.68;;;1.90;;
3549;SDS011;45572;48.804;8.330;2023-05-10T04:02:05;3.85;;;2.03;;
3549;SDS011;45572;48.804;8.330;2023-05-10T04:04:32;2.80;;;1.85;;
3549;SDS011;45572;48.804;8.330;2023-05-10T04:07:00;3.10;;;2.30;;
3549;SDS011;45572;48.804;8.330;2023-05-10T04:09:28;4.70;;;2.20;;
3549;SDS011;45572;48.804;8.330;2023-05-10T04:11:57;2.65;;;1.80;;
3549;SDS011;45572;48.804;8.330;2023-05-10T04:14:25;2.53;;;1.92;;
3549;SDS011;45572;48.804;8.330;2023-05-10T04:16:54;2.88;;;1.60;;
3549;SDS011;45572;48.804;8.330;2023-05-10T04:19:22;2.83;;;2.00;;
3549;SDS011;45572;48.804;8.330;2023-05-10T04:21:49;2.35;;;1.90;;
3549;SDS011;45572;48.804;8.330;2023-05-10T04:24:17;5.50;;;1.80;;
3549;SDS011;45572;48.804;8.330;2023-05-10T04:26:46;2.97;;;1.88;;
3549;SDS011;45572;48.804;8.330;2023-05-10T04:29:15;3.67;;;2.00;;
3549;SDS011;45572;48.804;8.330;2023-05-10T04:31:42;4.40;;;1.83;;
3549;SDS011;45572;48.804;8.330;2023-05-10T04:34:10;3.88;;;1.85;;
3549;SDS011;45572;48.804;8.330;2023-05-10T04:36:39;3.33;;;1.90;;
3549;SDS011;45572;48.804;8.330;2023-05-10T04:39:07;1.80;;;1.60;;
3549;SDS011;45572;48.804;8.330;2023-05-10T04:41:37;3.72;;;1.90;;
3549;SDS011;45572;48.804;8.330;2023-05-10T04:44:06;2.97;;;1.80;;
3549;SDS011;45572;48.804;8.330;2023-05-10T04:46:38;15.32;;;6.55;;
3549;SDS011;45572;48.804;8.330;2023-05-10T04:49:10;4.38;;;2.60;;
3549;SDS011;45572;48.804;8.330;2023-05-10T04:51:38;2.67;;;2.00;;
3549;SDS011;45572;48.804;8.330;2023-05-10T04:54:07;2.95;;;2.10;;
3549;SDS011;45572;48.804;8.330;2023-05-10T04:56:36;5.32;;;2.17;;
3549;SDS011;45572;48.804;8.330;2023-05-10T04:59:04;2.35;;;1.65;;
3549;SDS011;45572;48.804;8.330;2023-05-10T05:01:35;2.45;;;1.60;;
3549;SDS011;45572;48.804;8.330;2023-05-10T05:04:07;2.75;;;1.67;;
3549;SDS011;45572;48.804;8.330;2023-05-10T05:06:37;8.20;;;1.80;;
3549;SDS011;45572;48.804;8.330;2023-05-10T05:09:05;5.13;;;1.67;;
3549;SDS011;45572;48.804;8.330;2023-05-10T05:11:38;3.42;;;1.83;;
3549;SDS011;45572;48.804;8.330;2023-05-10T05:14:08;5.93;;;2.70;;
3549;SDS011;45572;48.804;8.330;2023-05-10T05:16:35;5.85;;;2.20;;
3549;SDS011;45572;48.804;8.330;2023-05-10T05:19:03;2.60;;;1.80;;
3549;SDS011;45572;48.804;8.330;2023-05-10T05:21:33;3.20;;;2.30;;
3549;SDS011;45572;48.804;8.330;2023-05-10T05:24:03;3.45;;;1.60;;
3549;SDS011;45572;48.804;8.330;2023-05-10T05:26:31;4.63;;;2.95;;
3549;SDS011;45572;48.804;8.330;2023-05-10T05:28:59;1.92;;;1.42;;
3549;SDS011;45572;48.804;8.330;2023-05-10T05:31:27;4.60;;;1.85;;
3549;SDS011;45572;48.804;8.330;2023-05-10T05:33:55;8.77;;;2.20;;
3549;SDS011;45572;48.804;8.330;2023-05-10T05:36:28;4.70;;;2.20;;
3549;SDS011;45572;48.804;8.330;2023-05-10T05:39:00;4.38;;;2.22;;
3549;SDS011;45572;48.804;8.330;2023-05-10T05:41:28;2.28;;;1.20;;
3549;SDS011;45572;48.804;8.330;2023-05-10T05:43:56;2.38;;;1.38;;
3549;SDS011;45572;48.804;8.330;2023-05-10T05:46:23;2.38;;;1.42;;
3549;SDS011;45572;48.804;8.330;2023-05-10T05:48:52;7.97;;;1.45;;
3549;SDS011;45572;48.804;8.330;2023-05-10T05:51:22;5.05;;;1.20;;
3549;SDS011;45572;48.804;8.330;2023-05-10T05:53:52;0.98;;;0.85;;
3549;SDS011;45572;48.804;8.330;2023-05-10T05:56:21;6.30;;;1.67;;
3549;SDS011;45572;48.804;8.330;2023-05-10T05:58:50;4.22;;;2.25;;
3549;SDS011;45572;48.804;8.330;2023-05-10T06:01:18;2.08;;;1.25;;
3549;SDS011;45572;48.804;8.330;2023-05-10T06:03:46;2.13;;;1.13;;
3549;SDS011;45572;48.804;8.330;2023-05-10T06:06:17;5.72;;;1.20;;
3549;SDS011;45572;48.804;8.330;2023-05-10T06:08:47;2.22;;;1.15;;
3549;SDS011;45572;48.804;8.330;2023-05-10T06:11:14;2.50;;;1.05;;
3549;SDS011;45572;48.804;8.330;2023-05-10T06:13:46;2.35;;;1.58;;
3549;SDS011;45572;48.804;8.330;2023-05-10T06:16:14;1.80;;;1.20;;
3549;SDS011;45572;48.804;8.330;2023-05-10T06:18:42;1.83;;;1.00;;
3549;SDS011;45572;48.804;8.330;2023-05-10T06:21:09;2.55;;;0.93;;
3549;SDS011;45572;48.804;8.330;2023-05-10T06:23:37;1.60;;;0.75;;
3549;SDS011;45572;48.804;8.330;2023-05-10T06:26:05;1.45;;;0.90;;
3549;SDS011;45572;48.804;8.330;2023-05-10T06:28:33;8.40;;;1.10;;
3549;SDS011;45572;48.804;8.330;2023-05-10T06:31:04;1.52;;;1.00;;
3549;SDS011;45572;48.804;8.330;2023-05-10T06:33:33;1.90;;;0.98;;
3549;SDS011;45572;48.804;8.330;2023-05-10T06:36:02;1.55;;;1.00;;
3549;SDS011;45572;48.804;8.330;2023-05-10T06:38:32;1.65;;;1.10;;
3549;SDS011;45572;48.804;8.330;2023-05-10T06:41:01;1.55;;;0.80;;
3549;SDS011;45572;48.804;8.330;2023-05-10T06:43:31;1.70;;;0.80;;
3549;SDS011;45572;48.804;8.330;2023-05-10T06:45:59;1.58;;;0.77;;
3549;SDS011;45572;48.804;8.330;2023-05-10T06:48:31;1.30;;;0.60;;
3549;SDS011;45572;48.804;8.330;2023-05-10T06:51:00;1.42;;;0.70;;
3549;SDS011;45572;48.804;8.330;2023-05-10T06:53:32;1.85;;;0.70;;
3549;SDS011;45572;48.804;8.330;2023-05-10T06:56:05;1.83;;;0.70;;
3549;SDS011;45572;48.804;8.330;2023-05-10T06:58:33;6.47;;;1.17;;
3549;SDS011;45572;48.804;8.330;2023-05-10T07:01:02;1.27;;;0.63;;
3549;SDS011;45572;48.804;8.330;2023-05-10T07:03:31;2.25;;;0.95;;
3549;SDS011;45572;48.804;8.330;2023-05-10T07:05:59;2.50;;;0.77;;
3549;SDS011;45572;48.804;8.330;2023-05-10T07:08:30;1.10;;;0.53;;
3549;SDS011;45572;48.804;8.330;2023-05-10T07:10:59;0.83;;;0.50;;
3549;SDS011;45572;48.804;8.330;2023-05-10T07:13:27;1.53;;;0.70;;
3549;SDS011;45572;48.804;8.330;2023-05-10T07:15:55;1.65;;;0.68;;
3549;SDS011;45572;48.804;8.330;2023-05-10T07:18:23;0.70;;;0.40;;
3549;SDS011;45572;48.804;8.330;2023-05-10T07:20:52;1.45;;;0.50;;
3549;SDS011;45572;48.804;8.330;2023-05-10T07:23:20;1.80;;;0.60;;
3549;SDS011;45572;48.804;8.330;2023-05-10T07:25:50;1.70;;;0.95;;
3549;SDS011;45572;48.804;8.330;2023-05-10T07:28:23;1.10;;;0.70;;
3549;SDS011;45572;48.804;8.330;2023-05-10T07:30:51;1.63;;;0.68;;
3549;SDS011;45572;48.804;8.330;2023-05-10T07:33:19;1.77;;;0.70;;
3549;SDS011;45572;48.804;8.330;2023-05-10T07:35:53;6.53;;;0.90;;
3549;SDS011;45572;48.804;8.330;2023-05-10T07:38:20;1.55;;;0.50;;
3549;SDS011;45572;48.804;8.330;2023-05-10T07:40:48;0.80;;;0.67;;
3549;SDS011;45572;48.804;8.330;2023-05-10T07:43:16;1.20;;;0.90;;
3549;SDS011;45572;48.804;8.330;2023-05-10T07:45:44;2.38;;;0.60;;
3549;SDS011;45572;48.804;8.330;2023-05-10T07:48:12;1.42;;;0.57;;
3549;SDS011;45572;48.804;8.330;2023-05-10T07:50:39;1.50;;;0.70;;
3549;SDS011;45572;48.804;8.330;2023-05-10T07:53:08;0.80;;;0.50;;
3549;SDS011;45572;48.804;8.330;2023-05-10T07:55:37;0.90;;;0.80;;
3549;SDS011;45572;48.804;8.330;2023-05-10T07:58:05;2.45;;;0.80;;
3549;SDS011;45572;48.804;8.330;2023-05-10T08:00:33;1.58;;;0.90;;
3549;SDS011;45572;48.804;8.330;2023-05-10T08:03:01;1.10;;;0.70;;
3549;SDS011;45572;48.804;8.330;2023-05-10T08:05:33;1.30;;;0.80;;
3549;SDS011;45572;48.804;8.330;2023-05-10T08:08:08;3.58;;;0.60;;
3549;SDS011;45572;48.804;8.330;2023-05-10T08:10:36;1.65;;;1.00;;
3549;SDS011;45572;48.804;8.330;2023-05-10T08:13:04;2.25;;;0.73;;
3549;SDS011;45572;48.804;8.330;2023-05-10T08:15:32;1.40;;;0.90;;
3549;SDS011;45572;48.804;8.330;2023-05-10T08:18:01;1.05;;;0.70;;
3549;SDS011;45572;48.804;8.330;2023-05-10T08:20:30;1.95;;;0.98;;
3549;SDS011;45572;48.804;8.330;2023-05-10T08:22:59;3.80;;;0.80;;
3549;SDS011;45572;48.804;8.330;2023-05-10T08:25:29;0.80;;;0.60;;
3549;SDS011;45572;48.804;8.330;2023-05-10T08:27:57;0.90;;;0.60;;
3549;SDS011;45572;48.804;8.330;2023-05-10T08:30:25;0.85;;;0.60;;
3549;SDS011;45572;48.804;8.330;2023-05-10T08:32:52;0.88;;;0.55;;
3549;SDS011;45572;48.804;8.330;2023-05-10T08:35:20;1.88;;;0.60;;
3549;SDS011;45572;48.804;8.330;2023-05-10T08:37:48;2.90;;;0.88;;
3549;SDS011;45572;48.804;8.330;2023-05-10T08:40:16;1.00;;;0.60;;
3549;SDS011;45572;48.804;8.330;2023-05-10T08:42:50;1.00;;;0.70;;
3549;SDS011;45572;48.804;8.330;2023-05-10T08:45:24;1.42;;;0.60;;
3549;SDS011;45572;48.804;8.330;2023-05-10T08:47:54;0.88;;;0.70;;
3549;SDS011;45572;48.804;8.330;2023-05-10T08:50:22;0.93;;;0.63;;
3549;SDS011;45572;48.804;8.330;2023-05-10T08:52:52;5.18;;;1.00;;
3549;SDS011;45572;48.804;8.330;2023-05-10T08:55:22;1.63;;;0.80;;
3549;SDS011;45572;48.804;8.330;2023-05-10T08:57:52;1.23;;;0.70;;
3549;SDS011;45572;48.804;8.330;2023-05-10T09:00:22;2.22;;;0.70;;
3549;SDS011;45572;48.804;8.330;2023-05-10T09:02:50;1.80;;;0.93;;
3549;SDS011;45572;48.804;8.330;2023-05-10T09:05:21;1.50;;;0.87;;
3549;SDS011;45572;48.804;8.330;2023-05-10T09:07:51;1.48;;;0.88;;
3549;SDS011;45572;48.804;8.330;2023-05-10T09:10:19;2.85;;;1.77;;
3549;SDS011;45572;48.804;8.330;2023-05-10T09:12:49;3.70;;;1.42;;
3549;SDS011;45572;48.804;8.330;2023-05-10T09:15:18;1.35;;;0.82;;
3549;SDS011;45572;48.804;8.330;2023-05-10T09:17:46;1.02;;;0.80;;
3549;SDS011;45572;48.804;8.330;2023-05-10T09:20:15;2.35;;;1.25;;
3549;SDS011;45572;48.804;8.330;2023-05-10T09:22:44;1.63;;;0.90;;
3549;SDS011;45572;48.804;8.330;2023-05-10T09:25:12;3.83;;;0.75;;
3549;SDS011;45572;48.804;8.330;2023-05-10T09:27:43;2.55;;;1.00;;
3549;SDS011;45572;48.804;8.330;2023-05-10T09:30:17;1.20;;;0.88;;
3549;SDS011;45572;48.804;8.330;2023-05-10T09:32:55;1.92;;;1.13;;
3549;SDS011;45572;48.804;8.330;2023-05-10T09:35:25;2.58;;;1.25;;
3549;SDS011;45572;48.804;8.330;2023-05-10T09:37:57;5.10;;;1.70;;
3549;SDS011;45572;48.804;8.330;2023-05-10T09:40:29;1.15;;;0.90;;
3549;SDS011;45572;48.804;8.330;2023-05-10T09:43:00;2.13;;;1.17;;
3549;SDS011;45572;48.804;8.330;2023-05-10T09:45:32;4.13;;;0.90;;
3549;SDS011;45572;48.804;8.330;2023-05-10T09:48:05;1.53;;;1.00;;
3549;SDS011;45572;48.804;8.330;2023-05-10T09:50:33;3.47;;;1.27;;
3549;SDS011;45572;48.804;8.330;2023-05-10T09:53:05;2.70;;;1.87;;
3549;SDS011;45572;48.804;8.330;2023-05-10T09:55:38;1.53;;;1.07;;
3549;SDS011;45572;48.804;8.330;2023-05-10T09:58:07;1.63;;;1.00;;
3549;SDS011;45572;48.804;8.330;2023-05-10T10:00:40;1.50;;;0.87;;
3549;SDS011;45572;48.804;8.330;2023-05-10T10:03:14;1.23;;;0.80;;
3549;SDS011;45572;48.804;8.330;2023-05-10T10:05:44;2.40;;;1.00;;
3549;SDS011;45572;48.804;8.330;2023-05-10T10:08:14;5.00;;;1.10;;
3549;SDS011;45572;48.804;8.330;2023-05-10T10:10:42;1.50;;;0.80;;
3549;SDS011;45572;48.804;8.330;2023-05-10T10:13:12;1.97;;;1.00;;
3549;SDS011;45572;48.804;8.330;2023-05-10T10:15:42;4.37;;;0.87;;
3549;SDS011;45572;48.804;8.330;2023-05-10T10:18:12;2.73;;;0.70;;
3549;SDS011;45572;48.804;8.330;2023-05-10T10:20:41;3.80;;;1.10;;
3549;SDS011;45572;48.804;8.330;2023-05-10T10:23:09;1.90;;;0.87;;
3549;SDS011;45572;48.804;8.330;2023-05-10T10:25:37;1.20;;;1.00;;
3549;SDS011;45572;48.804;8.330;2023-05-10T10:28:09;3.80;;;1.30;;
3549;SDS011;45572;48.804;8.330;2023-05-10T10:30:46;1.40;;;0.90;;
3549;SDS011;45572;48.804;8.330;2023-05-10T10:33:24;3.33;;;1.20;;
3549;SDS011;45572;48.804;8.330;2023-05-10T10:36:01;1.60;;;1.10;;
3549;SDS011;45572;48.804;8.330;2023-05-10T10:41:31;1.30;;;0.70;;
3549;SDS011;45572;48.804;8.330;2023-05-10T10:47:00;3.17;;;1.42;;
3549;SDS011;45572;48.804;8.330;2023-05-10T10:49:37;2.83;;;0.90;;
3549;SDS011;45572;48.804;8.330;2023-05-10T10:52:12;3.17;;;1.65;;
3549;SDS011;45572;48.804;8.330;2023-05-10T10:54:46;1.35;;;0.88;;
3549;SDS011;45572;48.804;8.330;2023-05-10T10:57:18;4.43;;;1.30;;
3549;SDS011;45572;48.804;8.330;2023-05-10T10:59:47;2.97;;;1.00;;
3549;SDS011;45572;48.804;8.330;2023-05-10T11:07:52;1.77;;;0.73;;
3549;SDS011;45572;48.804;8.330;2023-05-10T11:10:21;3.33;;;1.00;;
3549;SDS011;45572;48.804;8.330;2023-05-10T11:12:52;3.85;;;1.20;;
3549;SDS011;45572;48.804;8.330;2023-05-10T11:15:28;4.00;;;1.05;;
3549;SDS011;45572;48.804;8.330;2023-05-10T11:17:57;2.08;;;0.98;;
3549;SDS011;45572;48.804;8.330;2023-05-10T11:20:27;2.20;;;1.00;;
3549;SDS011;45572;48.804;8.330;2023-05-10T11:23:10;2.25;;;1.33;;
3549;SDS011;45572;48.804;8.330;2023-05-10T11:25:41;6.07;;;1.52;;
3549;SDS011;45572;48.804;8.330;2023-05-10T11:28:11;3.67;;;1.70;;
3549;SDS011;45572;48.804;8.330;2023-05-10T11:30:40;4.85;;;1.95;;
3549;SDS011;45572;48.804;8.330;2023-05-10T11:33:14;5.37;;;1.77;;
3549;SDS011;45572;48.804;8.330;2023-05-10T11:35:43;3.83;;;1.40;;
3549;SDS011;45572;48.804;8.330;2023-05-10T11:38:11;3.25;;;1.20;;
3549;SDS011;45572;48.804;8.330;2023-05-10T11:40:40;2.17;;;1.05;;
3549;SDS011;45572;48.804;8.330;2023-05-10T11:43:09;2.88;;;1.10;;
3549;SDS011;45572;48.804;8.330;2023-05-10T11:45:39;5.28;;;1.58;;
3549;SDS011;45572;48.804;8.330;2023-05-10T11:48:09;4.55;;;1.15;;
3549;SDS011;45572;48.804;8.330;2023-05-10T11:50:37;2.00;;;1.00;;
3549;SDS011;45572;48.804;8.330;2023-05-10T11:53:05;5.37;;;1.30;;
3549;SDS011;45572;48.804;8.330;2023-05-10T11:55:33;1.80;;;1.10;;
3549;SDS011;45572;48.804;8.330;2023-05-10T11:58:01;2.77;;;1.07;;
3549;SDS011;45572;48.804;8.330;2023-05-10T12:00:29;3.27;;;2.13;;
3549;SDS011;45572;48.804;8.330;2023-05-10T12:02:58;1.53;;;0.80;;
3549;SDS011;45572;48.804;8.330;2023-05-10T12:05:28;1.20;;;0.90;;
3549;SDS011;45572;48.804;8.330;2023-05-10T12:10:43;1.70;;;0.80;;
3549;SDS011;45572;48.804;8.330;2023-05-10T12:13:11;4.07;;;0.87;;
3549;SDS011;45572;48.804;8.330;2023-05-10T12:15:40;1.47;;;0.50;;
3549;SDS011;45572;48.804;8.330;2023-05-10T12:18:09;1.63;;;0.80;;
3549;SDS011;45572;48.804;8.330;2023-05-10T12:20:39;1.20;;;0.73;;
3549;SDS011;45572;48.804;8.330;2023-05-10T12:23:08;1.40;;;0.77;;
3549;SDS011;45572;48.804;8.330;2023-05-10T12:25:37;1.47;;;0.70;;
3549;SDS011;45572;48.804;8.330;2023-05-10T12:28:06;2.70;;;0.67;;
3549;SDS011;45572;48.804;8.330;2023-05-10T12:30:35;3.13;;;0.90;;
3549;SDS011;45572;48.804;8.330;2023-05-10T12:33:07;1.00;;;0.50;;
3549;SDS011;45572;48.804;8.330;2023-05-10T12:35:44;1.00;;;0.60;;
3549;SDS011;45572;48.804;8.330;2023-05-10T12:40:57;1.30;;;0.70;;
3549;SDS011;45572;48.804;8.330;2023-05-10T12:43:29;4.20;;;0.60;;
3549;SDS011;45572;48.804;8.330;2023-05-10T12:45:57;1.30;;;0.90;;
3549;SDS011;45572;48.804;8.330;2023-05-10T12:48:25;1.07;;;0.60;;
3549;SDS011;45572;48.804;8.330;2023-05-10T12:50:58;3.23;;;1.07;;
3549;SDS011;45572;48.804;8.330;2023-05-10T12:53:28;2.70;;;1.50;;
3549;SDS011;45572;48.804;8.330;2023-05-10T12:55:56;3.00;;;1.10;;
3549;SDS011;45572;48.804;8.330;2023-05-10T12:58:24;2.60;;;0.60;;
3549;SDS011;45572;48.804;8.330;2023-05-10T13:01:01;4.10;;;0.73;;
3549;SDS011;45572;48.804;8.330;2023-05-10T13:03:29;4.73;;;0.93;;
3549;SDS011;45572;48.804;8.330;2023-05-10T13:05:58;1.83;;;0.70;;
3549;SDS011;45572;48.804;8.330;2023-05-10T13:08:26;0.83;;;0.57;;
3549;SDS011;45572;48.804;8.330;2023-05-10T13:10:55;8.70;;;1.10;;
3549;SDS011;45572;48.804;8.330;2023-05-10T13:13:23;2.27;;;0.80;;
3549;SDS011;45572;48.804;8.330;2023-05-10T13:15:51;4.80;;;0.70;;
3549;SDS011;45572;48.804;8.330;2023-05-10T13:18:19;0.80;;;0.50;;
3549;SDS011;45572;48.804;8.330;2023-05-10T13:20:47;1.17;;;0.60;;
3549;SDS011;45572;48.804;8.330;2023-05-10T13:23:17;2.10;;;0.80;;
3549;SDS011;45572;48.804;8.330;2023-05-10T13:25:44;1.00;;;0.53;;
3549;SDS011;45572;48.804;8.330;2023-05-10T13:28:12;1.53;;;0.70;;
3549;SDS011;45572;48.804;8.330;2023-05-10T13:30:40;2.07;;;0.70;;
3549;SDS011;45572;48.804;8.330;2023-05-10T13:33:08;3.03;;;0.70;;
3549;SDS011;45572;48.804;8.330;2023-05-10T13:35:36;3.57;;;0.90;;
3549;SDS011;45572;48.804;8.330;2023-05-10T13:38:05;2.20;;;0.60;;
3549;SDS011;45572;48.804;8.330;2023-05-10T13:40:36;5.93;;;1.37;;
3549;SDS011;45572;48.804;8.330;2023-05-10T13:43:09;0.80;;;0.50;;
3549;SDS011;45572;48.804;8.330;2023-05-10T13:45:37;2.40;;;0.70;;
3549;SDS011;45572;48.804;8.330;2023-05-10T13:48:10;3.23;;;0.70;;
3549;SDS011;45572;48.804;8.330;2023-05-10T13:50:39;1.10;;;0.60;;
3549;SDS011;45572;48.804;8.330;2023-05-10T13:53:10;2.50;;;0.70;;
3549;SDS011;45572;48.804;8.330;2023-05-10T13:55:44;1.57;;;0.60;;
3549;SDS011;45572;48.804;8.330;2023-05-10T13:58:12;6.10;;;0.60;;
3549;SDS011;45572;48.804;8.330;2023-05-10T14:00:41;0.90;;;0.73;;
3549;SDS011;45572;48.804;8.330;2023-05-10T14:03:09;1.53;;;0.70;;
3549;SDS011;45572;48.804;8.330;2023-05-10T14:05:38;2.00;;;1.00;;
3549;SDS011;45572;48.804;8.330;2023-05-10T14:08:10;1.30;;;0.67;;
3549;SDS011;45572;48.804;8.330;2023-05-10T14:10:43;1.23;;;0.50;;
3549;SDS011;45572;48.804;8.330;2023-05-10T14:13:13;2.27;;;0.77;;
3549;SDS011;45572;48.804;8.330;2023-05-10T14:15:45;1.00;;;0.67;;
3549;SDS011;45572;48.804;8.330;2023-05-10T14:18:12;0.90;;;0.50;;
3549;SDS011;45572;48.804;8.330;2023-05-10T14:20:42;1.87;;;1.00;;
3549;SDS011;45572;48.804;8.330;2023-05-10T14:23:15;2.37;;;0.80;;
3549;SDS011;45572;48.804;8.330;2023-05-10T14:25:44;2.00;;;0.70;;
3549;SDS011;45572;48.804;8.330;2023-05-10T14:28:13;1.27;;;0.60;;
3549;SDS011;45572;48.804;8.330;2023-05-10T14:30:45;1.53;;;0.50;;
3549;SDS011;45572;48.804;8.330;2023-05-10T14:33:12;1.10;;;0.60;;
3549;SDS011;45572;48.804;8.330;2023-05-10T14:35:40;0.90;;;0.50;;
3549;SDS011;45572;48.804;8.330;2023-05-10T14:38:08;1.53;;;1.13;;
3549;SDS011;45572;48.804;8.330;2023-05-10T14:40:36;1.80;;;0.60;;
3549;SDS011;45572;48.804;8.330;2023-05-10T14:43:05;2.70;;;0.60;;
3549;SDS011;45572;48.804;8.330;2023-05-10T14:45:33;2.57;;;0.80;;
3549;SDS011;45572;48.804;8.330;2023-05-10T14:48:02;4.03;;;0.90;;
3549;SDS011;45572;48.804;8.330;2023-05-10T14:50:31;2.37;;;0.90;;
3549;SDS011;45572;48.804;8.330;2023-05-10T14:53:02;3.33;;;0.93;;
3549;SDS011;45572;48.804;8.330;2023-05-10T14:55:30;1.93;;;0.90;;
3549;SDS011;45572;48.804;8.330;2023-05-10T14:57:58;1.53;;;0.90;;
3549;SDS011;45572;48.804;8.330;2023-05-10T15:00:32;1.43;;;0.57;;
3549;SDS011;45572;48.804;8.330;2023-05-10T15:03:00;2.87;;;0.63;;
3549;SDS011;45572;48.804;8.330;2023-05-10T15:05:31;1.30;;;0.70;;
3549;SDS011;45572;48.804;8.330;2023-05-10T15:07:59;10.03;;;0.83;;
3549;SDS011;45572;48.804;8.330;2023-05-10T15:10:29;2.60;;;0.60;;
3549;SDS011;45572;48.804;8.330;2023-05-10T15:13:03;8.80;;;2.10;;
3549;SDS011;45572;48.804;8.330;2023-05-10T15:15:32;1.93;;;0.90;;
3549;SDS011;45572;48.804;8.330;2023-05-10T15:18:03;1.30;;;0.73;;
3549;SDS011;45572;48.804;8.330;2023-05-10T15:20:32;3.30;;;1.00;;
3549;SDS011;45572;48.804;8.330;2023-05-10T15:23:00;1.70;;;0.50;;
3549;SDS011;45572;48.804;8.330;2023-05-10T15:25:29;0.77;;;0.50;;
3549;SDS011;45572;48.804;8.330;2023-05-10T15:28:00;1.43;;;0.43;;
3549;SDS011;45572;48.804;8.330;2023-05-10T15:30:28;0.60;;;0.40;;
3549;SDS011;45572;48.804;8.330;2023-05-10T15:32:57;1.13;;;0.70;;
3549;SDS011;45572;48.804;8.330;2023-05-10T15:35:28;1.33;;;0.40;;
3549;SDS011;45572;48.804;8.330;2023-05-10T15:37:55;6.50;;;0.50;;
3549;SDS011;45572;48.804;8.330;2023-05-10T15:40:25;2.03;;;0.40;;